createdAt,value
2019-01-29T00:00:46.690Z,42.7
2019-01-29T00:01:47.256Z,42.65
2019-01-29T00:02:48.523Z,42.64
2019-01-29T00:03:46.890Z,42.65
2019-01-29T00:04:49.381Z,42.68
2019-01-29T00:05:46.880Z,42.64
2019-01-29T00:06:46.707Z,42.66
2019-01-29T00:07:46.787Z,42.66
2019-01-29T00:08:46.732Z,42.61
2019-01-29T00:09:46.711Z,42.61
2019-01-29T00:10:46.800Z,42.6
2019-01-29T00:11:46.769Z,42.66
2019-01-29T00:12:46.697Z,42.64
2019-01-29T00:13:46.934Z,42.69
2019-01-29T00:14:47.354Z,42.67
2019-01-29T00:15:46.657Z,42.64
2019-01-29T00:16:46.852Z,42.64
2019-01-29T00:17:46.815Z,42.59
2019-01-29T00:18:46.756Z,42.64
2019-01-29T00:19:46.705Z,42.62
2019-01-29T00:20:46.770Z,42.67
2019-01-29T00:21:46.771Z,42.68
2019-01-29T00:22:46.901Z,42.67
2019-01-29T00:23:46.541Z,42.65
2019-01-29T00:24:46.835Z,42.63
2019-01-29T00:25:47.414Z,42.63
2019-01-29T00:26:47.032Z,42.67
2019-01-29T00:27:46.904Z,42.61
2019-01-29T00:28:46.675Z,42.67
2019-01-29T00:29:46.651Z,42.68
2019-01-29T00:30:46.694Z,42.64
2019-01-29T00:31:46.702Z,42.69
2019-01-29T00:32:46.745Z,42.68
2019-01-29T00:33:48.502Z,42.65
2019-01-29T00:34:46.737Z,42.67
2019-01-29T00:35:47.768Z,42.69
2019-01-29T00:36:46.561Z,42.67
2019-01-29T00:37:47.442Z,42.69
2019-01-29T00:38:47.194Z,42.66
2019-01-29T00:39:46.605Z,42.63
2019-01-29T00:40:46.601Z,42.65
2019-01-29T00:41:46.772Z,42.66
2019-01-29T00:42:46.453Z,42.66
2019-01-29T00:43:47.043Z,42.67
2019-01-29T00:44:46.775Z,42.66
2019-01-29T00:45:46.779Z,42.67
2019-01-29T00:46:46.536Z,42.67
2019-01-29T00:47:46.956Z,42.67
2019-01-29T00:48:46.977Z,42.74
2019-01-29T00:49:46.729Z,42.67
2019-01-29T00:50:46.916Z,42.65
2019-01-29T00:51:46.774Z,42.67
2019-01-29T00:52:46.484Z,42.64
2019-01-29T00:53:47.104Z,42.69
2019-01-29T00:54:47.101Z,42.63
2019-01-29T00:55:47.047Z,42.64
2019-01-29T00:56:46.736Z,42.7
2019-01-29T00:57:46.547Z,42.64
2019-01-29T00:58:46.815Z,42.64
2019-01-29T00:59:47.167Z,42.64
2019-01-29T01:00:46.656Z,42.67
2019-01-29T01:01:46.945Z,42.66
2019-01-29T01:02:46.742Z,42.7
2019-01-29T01:03:46.535Z,42.64
2019-01-29T01:04:46.811Z,42.66
2019-01-29T01:05:47.011Z,42.69
2019-01-29T01:06:46.903Z,42.67
2019-01-29T01:07:46.695Z,42.69
2019-01-29T01:08:46.711Z,42.66
2019-01-29T01:09:46.936Z,42.66
2019-01-29T01:10:47.030Z,42.63
2019-01-29T01:11:47.032Z,42.63
2019-01-29T01:12:46.861Z,42.61
2019-01-29T01:13:47.034Z,42.64
2019-01-29T01:14:46.456Z,42.62
2019-01-29T01:15:46.977Z,42.64
2019-01-29T01:16:46.972Z,42.63
2019-01-29T01:17:46.479Z,42.62
2019-01-29T01:18:46.826Z,42.63
2019-01-29T01:19:47.133Z,42.65
2019-01-29T01:20:46.511Z,42.61
2019-01-29T01:21:46.943Z,42.68
2019-01-29T01:22:51.696Z,42.65
2019-01-29T01:23:46.694Z,42.63
2019-01-29T01:24:46.942Z,42.63
2019-01-29T01:25:46.713Z,42.64
2019-01-29T01:26:46.960Z,42.66
2019-01-29T01:27:46.707Z,42.65
2019-01-29T01:28:46.882Z,42.66
2019-01-29T01:29:46.729Z,42.64
2019-01-29T01:30:46.763Z,42.65
2019-01-29T01:31:46.535Z,42.62
2019-01-29T01:32:46.822Z,42.62
2019-01-29T01:33:46.535Z,42.68
2019-01-29T01:34:46.857Z,42.69
2019-01-29T01:35:46.702Z,42.67
2019-01-29T01:36:47.110Z,42.67
2019-01-29T01:37:46.602Z,42.7
2019-01-29T01:38:46.597Z,42.64
2019-01-29T01:39:46.609Z,42.67
2019-01-29T01:40:46.719Z,42.66
2019-01-29T01:41:47.082Z,42.66
2019-01-29T01:42:46.477Z,42.65
2019-01-29T01:43:46.575Z,42.68
2019-01-29T01:44:46.973Z,42.7
2019-01-29T01:45:46.503Z,42.64
2019-01-29T01:46:46.670Z,42.64
2019-01-29T01:47:46.767Z,42.63
2019-01-29T01:48:46.503Z,42.63
2019-01-29T01:49:46.816Z,42.69
2019-01-29T01:50:46.493Z,42.64
2019-01-29T01:51:46.706Z,42.63
2019-01-29T01:52:47.040Z,42.63
2019-01-29T01:53:48.599Z,42.67
2019-01-29T01:54:46.745Z,42.68
2019-01-29T01:55:46.740Z,42.64
2019-01-29T01:56:46.742Z,42.67
2019-01-29T01:57:47.041Z,42.65
2019-01-29T01:58:46.408Z,42.67
2019-01-29T01:59:46.799Z,42.65
2019-01-29T02:00:46.489Z,42.65
2019-01-29T02:01:46.612Z,42.67
2019-01-29T02:02:46.914Z,42.65
2019-01-29T02:03:46.915Z,42.64
2019-01-29T02:04:46.691Z,42.69
2019-01-29T02:05:46.913Z,42.65
2019-01-29T02:06:47.028Z,42.64
2019-01-29T02:07:46.848Z,42.67
2019-01-29T02:08:46.717Z,42.67
2019-01-29T02:09:46.882Z,42.65
2019-01-29T02:10:46.545Z,42.67
2019-01-29T02:11:47.179Z,42.66
2019-01-29T02:12:46.517Z,42.66
2019-01-29T02:13:46.631Z,42.63
2019-01-29T02:14:46.797Z,42.67
2019-01-29T02:15:46.990Z,42.67
2019-01-29T02:16:47.376Z,42.7
2019-01-29T02:17:46.404Z,42.67
2019-01-29T02:18:46.567Z,42.64
2019-01-29T02:19:47.951Z,42.66
2019-01-29T02:20:46.450Z,42.67
2019-01-29T02:21:47.027Z,42.64
2019-01-29T02:22:46.558Z,42.66
2019-01-29T02:23:46.427Z,42.68
2019-01-29T02:24:47.181Z,42.67
2019-01-29T02:25:46.780Z,42.64
2019-01-29T02:26:46.606Z,42.66
2019-01-29T02:27:46.891Z,42.62
2019-01-29T02:28:49.348Z,42.63
2019-01-29T02:29:46.752Z,42.59
2019-01-29T02:30:46.718Z,42.59
2019-01-29T02:31:46.470Z,42.64
2019-01-29T02:32:46.969Z,42.59
2019-01-29T02:33:46.671Z,42.62
2019-01-29T02:34:46.729Z,42.67
2019-01-29T02:35:46.696Z,42.63
2019-01-29T02:36:46.810Z,42.62
2019-01-29T02:37:46.654Z,42.64
2019-01-29T02:38:46.958Z,42.66
2019-01-29T02:39:46.677Z,42.63
2019-01-29T02:40:46.682Z,42.67
2019-01-29T02:41:46.647Z,42.64
2019-01-29T02:42:46.659Z,42.63
2019-01-29T02:43:47.016Z,42.61
2019-01-29T02:44:46.563Z,42.64
2019-01-29T02:45:46.526Z,42.62
2019-01-29T02:46:48.066Z,42.64
2019-01-29T02:47:46.769Z,42.61
2019-01-29T02:48:46.607Z,42.62
2019-01-29T02:49:47.134Z,42.62
2019-01-29T02:50:46.411Z,42.66
2019-01-29T02:51:46.828Z,42.65
2019-01-29T02:52:46.607Z,42.65
2019-01-29T02:53:46.466Z,42.61
2019-01-29T02:54:46.731Z,42.58
2019-01-29T02:55:47.605Z,42.57
2019-01-29T02:56:46.589Z,42.61
2019-01-29T02:57:46.890Z,42.57
2019-01-29T02:58:47.126Z,42.58
2019-01-29T02:59:46.577Z,42.56
2019-01-29T03:00:47.017Z,42.58
2019-01-29T03:01:46.699Z,42.61
2019-01-29T03:02:46.833Z,42.61
2019-01-29T03:03:47.065Z,42.58
2019-01-29T03:04:46.505Z,42.62
2019-01-29T03:05:46.723Z,42.61
2019-01-29T03:06:47.165Z,42.61
2019-01-29T03:07:47.043Z,42.6
2019-01-29T03:08:46.824Z,42.62
2019-01-29T03:09:46.571Z,42.58
2019-01-29T03:10:46.552Z,42.63
2019-01-29T03:11:46.917Z,42.62
2019-01-29T03:12:46.746Z,42.57
2019-01-29T03:13:46.959Z,42.58
2019-01-29T03:14:46.689Z,42.62
2019-01-29T03:15:47.233Z,42.67
2019-01-29T03:16:46.611Z,42.59
2019-01-29T03:17:46.914Z,42.58
2019-01-29T03:18:47.370Z,42.59
2019-01-29T03:19:46.562Z,42.58
2019-01-29T03:20:46.670Z,42.58
2019-01-29T03:21:46.550Z,42.61
2019-01-29T03:22:46.684Z,42.57
2019-01-29T03:23:47.108Z,42.58
2019-01-29T03:24:46.767Z,42.59
2019-01-29T03:25:46.865Z,42.61
2019-01-29T03:26:46.758Z,42.59
2019-01-29T03:27:46.377Z,42.57
2019-01-29T03:28:46.846Z,42.62
2019-01-29T03:29:46.532Z,42.57
2019-01-29T03:30:46.857Z,42.61
2019-01-29T03:31:46.977Z,42.57
2019-01-29T03:32:46.706Z,42.61
2019-01-29T03:33:46.898Z,42.61
2019-01-29T03:34:46.750Z,42.57
2019-01-29T03:35:46.782Z,42.64
2019-01-29T03:36:46.804Z,42.62
2019-01-29T03:37:46.524Z,42.57
2019-01-29T03:38:46.966Z,42.62
2019-01-29T03:39:46.752Z,42.64
2019-01-29T03:40:46.678Z,42.57
2019-01-29T03:41:46.736Z,42.56
2019-01-29T03:42:46.768Z,42.58
2019-01-29T03:43:48.198Z,42.58
2019-01-29T03:44:46.661Z,42.58
2019-01-29T03:45:46.733Z,42.56
2019-01-29T03:46:46.520Z,42.53
2019-01-29T03:47:46.742Z,42.59
2019-01-29T03:48:46.487Z,42.65
2019-01-29T03:49:46.502Z,42.57
2019-01-29T03:50:46.698Z,42.57
2019-01-29T03:51:46.362Z,42.6
2019-01-29T03:52:46.588Z,42.57
2019-01-29T03:53:48.491Z,42.56
2019-01-29T03:54:46.793Z,42.53
2019-01-29T03:55:46.612Z,42.54
2019-01-29T03:56:46.689Z,42.55
2019-01-29T03:57:46.600Z,42.59
2019-01-29T03:58:48.491Z,42.54
2019-01-29T03:59:46.506Z,42.57
2019-01-29T04:00:46.430Z,42.54
2019-01-29T04:01:46.564Z,42.55
2019-01-29T04:02:46.478Z,42.55
2019-01-29T04:03:47.574Z,42.58
2019-01-29T04:04:46.875Z,42.54
2019-01-29T04:05:46.407Z,42.53
2019-01-29T04:06:46.746Z,42.56
2019-01-29T04:07:46.953Z,42.53
2019-01-29T04:08:46.934Z,42.51
2019-01-29T04:09:46.596Z,42.54
2019-01-29T04:10:46.670Z,42.5
2019-01-29T04:11:46.909Z,42.54
2019-01-29T04:12:46.798Z,42.51
2019-01-29T04:13:47.071Z,42.52
2019-01-29T04:14:46.853Z,42.56
2019-01-29T04:15:46.867Z,42.53
2019-01-29T04:16:46.745Z,42.56
2019-01-29T04:17:46.741Z,42.53
2019-01-29T04:18:46.654Z,42.56
2019-01-29T04:19:46.807Z,42.53
2019-01-29T04:20:46.808Z,42.48
2019-01-29T04:21:46.956Z,42.53
2019-01-29T04:22:46.511Z,42.52
2019-01-29T04:23:48.354Z,42.52
2019-01-29T04:24:46.921Z,42.52
2019-01-29T04:25:46.446Z,42.52
2019-01-29T04:26:46.791Z,42.49
2019-01-29T04:27:46.742Z,42.45
2019-01-29T04:28:46.927Z,42.48
2019-01-29T04:29:46.679Z,42.54
2019-01-29T04:30:47.340Z,42.48
2019-01-29T04:31:46.504Z,42.49
2019-01-29T04:32:46.912Z,42.49
2019-01-29T04:33:46.856Z,42.51
2019-01-29T04:34:47.272Z,42.53
2019-01-29T04:35:47.656Z,42.49
2019-01-29T04:36:46.881Z,42.48
2019-01-29T04:37:47.046Z,42.53
2019-01-29T04:38:46.595Z,42.52
2019-01-29T04:39:46.890Z,42.49
2019-01-29T04:40:47.043Z,42.51
2019-01-29T04:41:46.437Z,42.52
2019-01-29T04:42:46.564Z,42.52
2019-01-29T04:43:47.024Z,42.51
2019-01-29T04:44:46.450Z,42.59
2019-01-29T04:45:46.536Z,42.54
2019-01-29T04:46:46.773Z,42.53
2019-01-29T04:47:46.487Z,42.57
2019-01-29T04:48:46.756Z,42.56
2019-01-29T04:49:46.817Z,42.62
2019-01-29T04:50:46.611Z,42.61
2019-01-29T04:51:46.621Z,42.59
2019-01-29T04:52:46.802Z,42.57
2019-01-29T04:53:46.811Z,42.58
2019-01-29T04:54:46.807Z,42.6
2019-01-29T04:55:46.892Z,42.57
2019-01-29T04:56:46.735Z,42.53
2019-01-29T04:57:47.205Z,42.5
2019-01-29T04:58:46.920Z,42.5
2019-01-29T04:59:46.502Z,42.58
2019-01-29T05:00:47.982Z,42.58
2019-01-29T05:01:46.527Z,42.6
2019-01-29T05:02:46.964Z,42.54
2019-01-29T05:03:46.781Z,42.54
2019-01-29T05:04:46.549Z,42.51
2019-01-29T05:05:46.556Z,42.51
2019-01-29T05:06:46.390Z,42.52
2019-01-29T05:07:46.654Z,42.54
2019-01-29T05:08:46.912Z,42.53
2019-01-29T05:09:46.701Z,42.5
2019-01-29T05:10:46.747Z,42.46
2019-01-29T05:11:46.473Z,42.47
2019-01-29T05:12:46.538Z,42.46
2019-01-29T05:13:46.771Z,42.43
2019-01-29T05:14:46.717Z,42.35
2019-01-29T05:15:46.640Z,42.35
2019-01-29T05:16:46.736Z,42.41
2019-01-29T05:17:46.528Z,42.31
2019-01-29T05:18:46.426Z,42.31
2019-01-29T05:19:46.744Z,42.26
2019-01-29T05:20:46.614Z,42.26
2019-01-29T05:21:46.778Z,42.2
2019-01-29T05:22:46.831Z,42.24
2019-01-29T05:23:46.537Z,42.21
2019-01-29T05:24:46.883Z,42.19
2019-01-29T05:25:46.434Z,42.22
2019-01-29T05:26:46.737Z,42.24
2019-01-29T05:27:46.888Z,42.18
2019-01-29T05:28:46.553Z,42.18
2019-01-29T05:29:46.480Z,42.19
2019-01-29T05:30:46.874Z,42.11
2019-01-29T05:31:46.289Z,42.15
2019-01-29T05:32:46.831Z,42.15
2019-01-29T05:33:46.891Z,42.13
2019-01-29T05:34:46.500Z,42.09
2019-01-29T05:35:46.572Z,42.1
2019-01-29T05:36:46.578Z,42.09
2019-01-29T05:37:46.515Z,42.09
2019-01-29T05:38:46.943Z,42.1
2019-01-29T05:39:46.733Z,42.11
2019-01-29T05:40:46.962Z,42.15
2019-01-29T05:41:46.772Z,42.1
2019-01-29T05:42:46.830Z,42.13
2019-01-29T05:43:47.146Z,42.13
2019-01-29T05:44:46.937Z,42.1
2019-01-29T05:45:47.262Z,42.1
2019-01-29T05:46:47.477Z,42.11
2019-01-29T05:47:47.735Z,42.07
2019-01-29T05:48:46.736Z,42.07
2019-01-29T05:49:46.653Z,42.06
2019-01-29T05:50:46.520Z,42.1
2019-01-29T05:51:47.077Z,42.07
2019-01-29T05:52:48.688Z,42.03
2019-01-29T05:53:46.874Z,42.08
2019-01-29T05:54:46.509Z,42.06
2019-01-29T05:55:47.259Z,42.06
2019-01-29T05:56:47.801Z,42.14
2019-01-29T05:57:47.123Z,42.04
2019-01-29T05:58:48.043Z,42.08
2019-01-29T05:59:46.843Z,42.07
2019-01-29T06:00:48.533Z,42.03
2019-01-29T06:01:47.039Z,42.1
2019-01-29T06:02:49.065Z,42.02
2019-01-29T06:03:46.971Z,42.06
2019-01-29T06:04:46.795Z,42.01
2019-01-29T06:05:46.569Z,42.06
2019-01-29T06:06:48.520Z,42.04
2019-01-29T06:07:47.212Z,42.06
2019-01-29T06:08:46.493Z,42.05
2019-01-29T06:09:46.704Z,42.04
2019-01-29T06:10:46.781Z,42.04
2019-01-29T06:11:46.462Z,42.04
2019-01-29T06:12:46.807Z,42.19
2019-01-29T06:13:46.710Z,42.26
2019-01-29T06:14:47.588Z,43.05
2019-01-29T06:15:46.658Z,42.93
2019-01-29T06:16:46.431Z,43.08
2019-01-29T06:17:46.864Z,42.96
2019-01-29T06:18:46.645Z,42.98
2019-01-29T06:19:46.612Z,42.82
2019-01-29T06:20:46.895Z,42.91
2019-01-29T06:21:46.633Z,42.98
2019-01-29T06:22:46.674Z,42.62
2019-01-29T06:23:46.843Z,42.44
2019-01-29T06:24:47.312Z,42.31
2019-01-29T06:25:47.368Z,40.98
2019-01-29T06:26:46.459Z,39.15
2019-01-29T06:27:46.399Z,38.53
2019-01-29T06:28:46.495Z,38.14
2019-01-29T06:29:46.807Z,37.79
2019-01-29T06:30:46.780Z,37.93
2019-01-29T06:31:46.752Z,37.34
2019-01-29T06:32:46.862Z,37.58
2019-01-29T06:33:46.955Z,37.39
2019-01-29T06:34:46.794Z,38.08
2019-01-29T06:35:46.483Z,38.19
2019-01-29T06:36:46.800Z,38.62
2019-01-29T06:37:46.532Z,38.75
2019-01-29T06:38:46.804Z,38.8
2019-01-29T06:39:47.012Z,39.1
2019-01-29T06:40:46.804Z,39.48
2019-01-29T06:41:46.841Z,39.71
2019-01-29T06:42:46.741Z,39.88
2019-01-29T06:43:46.525Z,40.03
2019-01-29T06:44:46.360Z,40.11
2019-01-29T06:45:46.469Z,40.16
2019-01-29T06:46:47.145Z,40.27
2019-01-29T06:47:46.646Z,40.31
2019-01-29T06:48:46.360Z,40.35
2019-01-29T06:49:46.575Z,40.4
2019-01-29T06:50:47.449Z,40.34
2019-01-29T06:51:46.397Z,41.04
2019-01-29T06:52:46.509Z,41.22
2019-01-29T06:53:46.805Z,41.16
2019-01-29T06:54:46.393Z,41.19
2019-01-29T06:55:46.835Z,41.1
2019-01-29T06:56:47.512Z,41.12
2019-01-29T06:57:56.390Z,41.18
2019-01-29T06:58:46.693Z,41.18
2019-01-29T06:59:46.468Z,41.14
2019-01-29T07:00:46.539Z,41.1
2019-01-29T07:01:46.366Z,41.09
2019-01-29T07:02:46.424Z,41.15
2019-01-29T07:03:46.809Z,41.11
2019-01-29T07:04:47.289Z,41.08
2019-01-29T07:05:46.606Z,41.1
2019-01-29T07:06:46.904Z,41.07
2019-01-29T07:07:46.405Z,41.12
2019-01-29T07:08:46.492Z,41.03
2019-01-29T07:09:46.433Z,41.17
2019-01-29T07:10:47.155Z,41.13
2019-01-29T07:11:46.864Z,41.2
2019-01-29T07:12:46.941Z,41.32
2019-01-29T07:13:46.850Z,41.19
2019-01-29T07:14:46.498Z,41.11
2019-01-29T07:15:46.577Z,41.24
2019-01-29T07:16:46.486Z,41.21
2019-01-29T07:17:46.608Z,41.12
2019-01-29T07:18:46.784Z,41.05
2019-01-29T07:19:46.399Z,41.08
2019-01-29T07:20:47.109Z,41.16
2019-01-29T07:21:46.487Z,41.2
2019-01-29T07:22:46.805Z,41.12
2019-01-29T07:23:46.639Z,41.08
2019-01-29T07:24:46.370Z,41.11
2019-01-29T07:25:46.819Z,41.09
2019-01-29T07:26:46.778Z,41.44
2019-01-29T07:27:46.745Z,41.02
2019-01-29T07:28:47.075Z,40.97
2019-01-29T07:29:46.628Z,40.95
2019-01-29T07:30:46.475Z,41.26
2019-01-29T07:31:46.865Z,41.28
2019-01-29T07:32:46.675Z,41.42
2019-01-29T07:33:46.344Z,41.44
2019-01-29T07:34:46.847Z,41.39
2019-01-29T07:35:48.482Z,41.82
2019-01-29T07:36:46.981Z,41.46
2019-01-29T07:37:46.508Z,41.37
2019-01-29T07:38:46.936Z,41.39
2019-01-29T07:39:46.501Z,41.52
2019-01-29T07:40:46.848Z,41.39
2019-01-29T07:41:46.853Z,41.4
2019-01-29T07:42:46.508Z,41.49
2019-01-29T07:43:46.854Z,41.59
2019-01-29T07:44:46.894Z,41.59
2019-01-29T07:45:46.307Z,41.54
2019-01-29T07:46:46.986Z,41.39
2019-01-29T07:47:46.389Z,41.48
2019-01-29T07:48:47.018Z,41.59
2019-01-29T07:49:46.546Z,41.41
2019-01-29T07:50:46.714Z,41.58
2019-01-29T07:51:46.554Z,41.74
2019-01-29T07:52:46.484Z,41.52
2019-01-29T07:53:46.871Z,41.39
2019-01-29T07:54:51.708Z,41.62
2019-01-29T07:55:46.758Z,41.45
2019-01-29T07:56:47.319Z,41.47
2019-01-29T07:57:46.775Z,41.48
2019-01-29T07:58:47.056Z,41.56
2019-01-29T07:59:46.708Z,41.54
2019-01-29T08:00:46.902Z,41.67
2019-01-29T08:01:47.804Z,41.47
2019-01-29T08:02:46.655Z,41.59
2019-01-29T08:03:47.124Z,42.19
2019-01-29T08:04:47.723Z,41.88
2019-01-29T08:05:47.125Z,41.8
2019-01-29T08:06:46.636Z,41.67
2019-01-29T08:07:47.137Z,41.67
2019-01-29T08:08:46.452Z,41.95
2019-01-29T08:09:46.845Z,41.94
2019-01-29T08:10:46.773Z,41.89
2019-01-29T08:11:46.937Z,42.14
2019-01-29T08:12:46.612Z,41.99
2019-01-29T08:13:46.724Z,42.06
2019-01-29T08:14:46.423Z,41.87
2019-01-29T08:15:46.799Z,42.14
2019-01-29T08:16:46.783Z,41.93
2019-01-29T08:17:46.464Z,41.81
2019-01-29T08:18:46.928Z,41.72
2019-01-29T08:19:46.715Z,41.78
2019-01-29T08:20:46.832Z,42.13
2019-01-29T08:21:46.848Z,41.78
2019-01-29T08:22:46.641Z,41.83
2019-01-29T08:23:46.443Z,41.9
2019-01-29T08:25:02.490Z,42
2019-01-29T08:25:48.484Z,41.87
2019-01-29T08:26:46.970Z,42.19
2019-01-29T08:27:46.457Z,42.25
2019-01-29T08:28:46.375Z,41.98
2019-01-29T08:29:46.840Z,41.9
2019-01-29T08:30:46.461Z,42.06
2019-01-29T08:31:48.397Z,42.02
2019-01-29T08:32:46.933Z,42.05
2019-01-29T08:33:46.289Z,42.38
2019-01-29T08:34:46.536Z,42.31
2019-01-29T08:35:46.668Z,42.05
2019-01-29T08:36:46.741Z,42.05
2019-01-29T08:37:47.147Z,42.36
2019-01-29T08:38:47.275Z,42.24
2019-01-29T08:39:46.701Z,41.92
2019-01-29T08:40:46.495Z,41.84
2019-01-29T08:41:46.774Z,41.88
2019-01-29T08:42:46.514Z,41.85
2019-01-29T08:43:46.590Z,42.04
2019-01-29T08:44:46.794Z,41.73
2019-01-29T08:45:46.580Z,41.82
2019-01-29T08:46:46.333Z,42.02
2019-01-29T08:47:46.361Z,41.8
2019-01-29T08:48:46.301Z,41.73
2019-01-29T08:49:47.132Z,41.73
2019-01-29T08:50:46.410Z,41.82
2019-01-29T08:51:46.854Z,42
2019-01-29T08:52:46.684Z,41.78
2019-01-29T08:53:46.358Z,42.09
2019-01-29T08:54:46.508Z,41.97
2019-01-29T08:55:46.511Z,41.86
2019-01-29T08:56:46.348Z,41.8
2019-01-29T08:57:46.488Z,41.77
2019-01-29T08:58:46.557Z,42.18
2019-01-29T08:59:46.610Z,41.94
2019-01-29T09:00:46.888Z,42.35
2019-01-29T09:01:46.601Z,41.92
2019-01-29T09:02:48.411Z,42.35
2019-01-29T09:03:46.350Z,41.7
2019-01-29T09:04:47.109Z,41.57
2019-01-29T09:05:46.776Z,41.5
2019-01-29T09:06:46.768Z,41.58
2019-01-29T09:07:46.522Z,41.54
2019-01-29T09:08:46.419Z,41.55
2019-01-29T09:09:46.408Z,41.49
2019-01-29T09:10:46.777Z,41.49
2019-01-29T09:11:47.003Z,41.46
2019-01-29T09:12:46.538Z,41.51
2019-01-29T09:13:46.753Z,41.95
2019-01-29T09:14:46.673Z,41.89
2019-01-29T09:15:46.878Z,41.91
2019-01-29T09:16:47.025Z,41.89
2019-01-29T09:17:46.739Z,41.93
2019-01-29T09:18:46.524Z,42
2019-01-29T09:19:47.147Z,41.97
2019-01-29T09:20:46.765Z,41.99
2019-01-29T09:21:46.381Z,41.93
2019-01-29T09:22:47.076Z,41.88
2019-01-29T09:23:46.555Z,42.02
2019-01-29T09:24:46.760Z,42
2019-01-29T09:25:46.881Z,41.88
2019-01-29T09:26:46.998Z,41.9
2019-01-29T09:27:46.522Z,41.94
2019-01-29T09:28:46.796Z,42
2019-01-29T09:29:46.389Z,42.08
2019-01-29T09:30:46.570Z,41.87
2019-01-29T09:31:46.812Z,42.18
2019-01-29T09:32:47.128Z,42.19
2019-01-29T09:33:47.396Z,42.07
2019-01-29T09:34:46.948Z,41.95
2019-01-29T09:35:46.968Z,42.07
2019-01-29T09:36:46.893Z,41.83
2019-01-29T09:37:46.817Z,42.09
2019-01-29T09:38:46.404Z,42.14
2019-01-29T09:39:46.522Z,41.95
2019-01-29T09:40:48.493Z,42.23
2019-01-29T09:41:46.878Z,41.72
2019-01-29T09:42:47.429Z,42.1
2019-01-29T09:43:46.598Z,42.01
2019-01-29T09:44:48.334Z,42.01
2019-01-29T09:45:46.496Z,42.47
2019-01-29T09:46:48.167Z,42.42
2019-01-29T09:47:46.307Z,42.02
2019-01-29T09:48:47.052Z,41.91
2019-01-29T09:49:46.318Z,42.04
2019-01-29T09:50:46.582Z,42.29
2019-01-29T09:51:46.627Z,41.75
2019-01-29T09:52:46.436Z,41.57
2019-01-29T09:53:46.630Z,42.19
2019-01-29T09:54:46.896Z,41.83
2019-01-29T09:55:46.600Z,41.88
2019-01-29T09:56:46.642Z,41.9
2019-01-29T09:57:46.993Z,42.03
2019-01-29T09:58:46.701Z,42.34
2019-01-29T09:59:46.524Z,41.95
2019-01-29T10:00:47.149Z,41.86
2019-01-29T10:01:48.182Z,42.24
2019-01-29T10:02:46.883Z,41.91
2019-01-29T10:03:46.429Z,42.03
2019-01-29T10:04:46.689Z,42.2
2019-01-29T10:05:46.353Z,42.4
2019-01-29T10:06:46.680Z,42.21
2019-01-29T10:07:46.382Z,42.42
2019-01-29T10:08:48.434Z,42.2
2019-01-29T10:09:46.783Z,42.34
2019-01-29T10:10:46.507Z,42.13
2019-01-29T10:11:46.935Z,41.93
2019-01-29T10:12:46.672Z,42.2
2019-01-29T10:13:46.576Z,42.16
2019-01-29T10:14:47.265Z,42.08
2019-01-29T10:15:46.762Z,42.13
2019-01-29T10:16:46.595Z,42.39
2019-01-29T10:17:46.504Z,42.17
2019-01-29T10:18:47.075Z,42.26
2019-01-29T10:19:46.396Z,42.16
2019-01-29T10:20:46.950Z,42.25
2019-01-29T10:21:46.417Z,42.29
2019-01-29T10:22:46.484Z,42.09
2019-01-29T10:23:46.629Z,41.86
2019-01-29T10:24:47.416Z,42.15
2019-01-29T10:25:47.093Z,41.87
2019-01-29T10:26:47.865Z,41.91
2019-01-29T10:27:46.575Z,42.03
2019-01-29T10:28:46.921Z,41.95
2019-01-29T10:29:47.160Z,42.01
2019-01-29T10:30:46.358Z,41.87
2019-01-29T10:31:46.421Z,42.19
2019-01-29T10:32:46.768Z,41.95
2019-01-29T10:33:46.845Z,42.01
2019-01-29T10:34:46.574Z,41.96
2019-01-29T10:35:46.419Z,42.01
2019-01-29T10:36:46.672Z,41.96
2019-01-29T10:37:46.703Z,41.92
2019-01-29T10:38:46.747Z,41.96
2019-01-29T10:39:47.022Z,41.86
2019-01-29T10:40:47.215Z,42
2019-01-29T10:41:46.507Z,41.89
2019-01-29T10:42:48.372Z,41.78
2019-01-29T10:43:48.074Z,42.13
2019-01-29T10:44:46.640Z,41.83
2019-01-29T10:45:46.784Z,42.21
2019-01-29T10:46:46.609Z,41.92
2019-01-29T10:47:46.757Z,41.8
2019-01-29T10:48:46.510Z,41.88
2019-01-29T10:49:47.401Z,41.82
2019-01-29T10:50:46.359Z,41.88
2019-01-29T10:51:46.557Z,41.86
2019-01-29T10:52:46.687Z,42
2019-01-29T10:53:46.938Z,41.64
2019-01-29T10:54:46.750Z,41.73
2019-01-29T10:55:48.036Z,41.81
2019-01-29T10:56:47.573Z,41.73
2019-01-29T10:57:46.416Z,41.79
2019-01-29T10:58:46.962Z,41.77
2019-01-29T10:59:46.531Z,41.81
2019-01-29T11:00:46.418Z,41.73
2019-01-29T11:01:46.505Z,41.9
2019-01-29T11:02:46.790Z,41.67
2019-01-29T11:03:46.284Z,41.7
2019-01-29T11:04:49.514Z,41.72
2019-01-29T11:05:47.398Z,41.93
2019-01-29T11:06:47.398Z,41.66
2019-01-29T11:07:48.424Z,41.73
2019-01-29T11:08:46.342Z,41.72
2019-01-29T11:09:48.750Z,41.65
2019-01-29T11:10:46.861Z,41.97
2019-01-29T11:11:47.122Z,41.88
2019-01-29T11:12:47.158Z,41.76
2019-01-29T11:13:46.286Z,41.88
2019-01-29T11:14:46.597Z,41.68
2019-01-29T11:15:46.841Z,41.53
2019-01-29T11:16:46.406Z,41.83
2019-01-29T11:17:46.491Z,41.58
2019-01-29T11:18:46.696Z,41.64
2019-01-29T11:19:47.629Z,42.23
2019-01-29T11:20:47.845Z,42.01
2019-01-29T11:21:46.335Z,41.72
2019-01-29T11:22:46.460Z,41.74
2019-01-29T11:23:46.487Z,41.91
2019-01-29T11:24:46.475Z,41.84
2019-01-29T11:25:56.878Z,41.79
2019-01-29T11:26:46.569Z,41.77
2019-01-29T11:27:47.053Z,42.03
2019-01-29T11:28:47.164Z,41.87
2019-01-29T11:29:47.143Z,41.96
2019-01-29T11:30:46.384Z,42.03
2019-01-29T11:31:47.442Z,41.86
2019-01-29T11:32:46.564Z,42.02
2019-01-29T11:33:48.507Z,41.92
2019-01-29T11:34:46.469Z,41.83
2019-01-29T11:35:46.954Z,41.75
2019-01-29T11:36:47.394Z,41.69
2019-01-29T11:37:47.170Z,41.74
2019-01-29T11:38:46.311Z,41.72
2019-01-29T11:39:46.541Z,41.83
2019-01-29T11:40:46.698Z,41.81
2019-01-29T11:41:46.892Z,41.85
2019-01-29T11:42:47.199Z,41.95
2019-01-29T11:43:47.057Z,41.84
2019-01-29T11:44:46.399Z,41.75
2019-01-29T11:45:46.909Z,41.89
2019-01-29T11:46:47.211Z,41.71
2019-01-29T11:47:46.421Z,41.82
2019-01-29T11:48:46.784Z,41.75
2019-01-29T11:49:46.633Z,41.8
2019-01-29T11:50:46.534Z,41.96
2019-01-29T11:51:47.122Z,41.71
2019-01-29T11:52:46.503Z,41.88
2019-01-29T11:53:46.850Z,41.66
2019-01-29T11:54:47.563Z,41.83
2019-01-29T11:55:46.442Z,41.71
2019-01-29T11:56:47.125Z,41.93
2019-01-29T11:57:47.290Z,41.84
2019-01-29T11:58:48.247Z,41.54
2019-01-29T11:59:46.793Z,41.5
2019-01-29T12:00:46.287Z,41.47
2019-01-29T12:01:46.630Z,41.47
2019-01-29T12:02:46.472Z,41.44
2019-01-29T12:03:46.647Z,41.48
2019-01-29T12:04:46.343Z,41.42
2019-01-29T12:05:46.860Z,41.74
2019-01-29T12:06:46.290Z,41.74
2019-01-29T12:07:46.409Z,41.84
2019-01-29T12:08:46.920Z,41.73
2019-01-29T12:09:46.783Z,41.72
2019-01-29T12:10:46.790Z,41.73
2019-01-29T12:11:46.405Z,41.74
2019-01-29T12:12:47.743Z,41.69
2019-01-29T12:13:46.454Z,41.51
2019-01-29T12:14:46.415Z,41.46
2019-01-29T12:15:46.737Z,41.44
2019-01-29T12:16:46.848Z,41.44
2019-01-29T12:17:46.852Z,41.49
2019-01-29T12:18:46.764Z,41.43
2019-01-29T12:19:46.287Z,41.44
2019-01-29T12:20:46.436Z,41.45
2019-01-29T12:21:46.892Z,41.45
2019-01-29T12:22:46.382Z,41.43
2019-01-29T12:23:46.496Z,41.4
2019-01-29T12:24:46.528Z,41.43
2019-01-29T12:25:46.775Z,41.39
2019-01-29T12:26:46.345Z,41.4
2019-01-29T12:27:46.823Z,41.37
2019-01-29T12:28:46.423Z,41.39
2019-01-29T12:29:46.339Z,41.37
2019-01-29T12:30:46.544Z,41.37
2019-01-29T12:31:46.420Z,41.35
2019-01-29T12:32:46.490Z,41.39
2019-01-29T12:33:46.543Z,41.36
2019-01-29T12:34:46.419Z,41.37
2019-01-29T12:35:46.426Z,41.58
2019-01-29T12:36:47.606Z,41.68
2019-01-29T12:37:46.475Z,41.96
2019-01-29T12:38:46.597Z,41.88
2019-01-29T12:39:46.485Z,41.83
2019-01-29T12:40:46.459Z,41.8
2019-01-29T12:41:46.562Z,41.85
2019-01-29T12:42:46.533Z,41.86
2019-01-29T12:43:46.503Z,42.06
2019-01-29T12:44:46.245Z,41.99
2019-01-29T12:45:48.753Z,42.26
2019-01-29T12:46:46.391Z,42.32
2019-01-29T12:47:46.210Z,41.81
2019-01-29T12:48:46.342Z,40.1
2019-01-29T12:49:46.404Z,39.44
2019-01-29T12:50:46.439Z,40.65
2019-01-29T12:51:47.396Z,40.44
2019-01-29T12:52:46.702Z,40.47
2019-01-29T12:53:46.229Z,40.98
2019-01-29T12:54:46.808Z,41.28
2019-01-29T12:55:46.265Z,41.12